sensor_id;sensor_type;location;lat;lon;timestamp;P1;durP1;ratioP1;P2;durP2;ratioP2
37339;SDS011;23223;51.006;7.610;2023-09-30T00:01:08;12.13;;;3.65;;
37339;SDS011;23223;51.006;7.610;2023-09-30T00:03:35;12.48;;;3.97;;
37339;SDS011;23223;51.006;7.610;2023-09-30T00:06:01;10.55;;;3.90;;
37339;SDS011;23223;51.006;7.610;2023-09-30T00:08:27;9.48;;;3.08;;
37339;SDS011;23223;51.006;7.610;2023-09-30T00:10:52;10.75;;;3.95;;
37339;SDS011;23223;51.006;7.610;2023-09-30T00:13:19;13.77;;;4.60;;
37339;SDS011;23223;51.006;7.610;2023-09-30T00:15:45;10.48;;;3.42;;
37339;SDS011;23223;51.006;7.610;2023-09-30T00:18:10;12.63;;;4.15;;
37339;SDS011;23223;51.006;7.610;2023-09-30T00:20:36;10.32;;;3.40;;
37339;SDS011;23223;51.006;7.610;2023-09-30T00:23:02;11.50;;;3.60;;
37339;SDS011;23223;51.006;7.610;2023-09-30T00:25:28;8.18;;;3.10;;
37339;SDS011;23223;51.006;7.610;2023-09-30T00:27:53;9.77;;;3.38;;
37339;SDS011;23223;51.006;7.610;2023-09-30T00:30:19;9.95;;;3.65;;
37339;SDS011;23223;51.006;7.610;2023-09-30T00:32:46;10.27;;;3.83;;
37339;SDS011;23223;51.006;7.610;2023-09-30T00:35:12;12.38;;;4.22;;
37339;SDS011;23223;51.006;7.610;2023-09-30T00:37:37;11.10;;;4.82;;
37339;SDS011;23223;51.006;7.610;2023-09-30T00:40:04;12.38;;;4.07;;
37339;SDS011;23223;51.006;7.610;2023-09-30T00:42:30;9.13;;;3.78;;
37339;SDS011;23223;51.006;7.610;2023-09-30T00:44:56;11.63;;;4.07;;
37339;SDS011;23223;51.006;7.610;2023-09-30T00:47:22;13.63;;;4.03;;
37339;SDS011;23223;51.006;7.610;2023-09-30T00:49:49;12.60;;;4.00;;
37339;SDS011;23223;51.006;7.610;2023-09-30T00:52:15;8.50;;;3.28;;
37339;SDS011;23223;51.006;7.610;2023-09-30T00:54:42;13.55;;;4.30;;
37339;SDS011;23223;51.006;7.610;2023-09-30T00:57:09;17.02;;;4.43;;
37339;SDS011;23223;51.006;7.610;2023-09-30T00:59:36;10.60;;;4.47;;
37339;SDS011;23223;51.006;7.610;2023-09-30T01:02:02;19.33;;;5.55;;
37339;SDS011;23223;51.006;7.610;2023-09-30T01:04:30;17.63;;;5.22;;
37339;SDS011;23223;51.006;7.610;2023-09-30T01:06:56;16.17;;;4.75;;
37339;SDS011;23223;51.006;7.610;2023-09-30T01:09:24;20.42;;;5.25;;
37339;SDS011;23223;51.006;7.610;2023-09-30T01:11:50;31.73;;;5.93;;
37339;SDS011;23223;51.006;7.610;2023-09-30T01:14:23;18.65;;;6.70;;
37339;SDS011;23223;51.006;7.610;2023-09-30T01:16:50;19.60;;;6.35;;
37339;SDS011;23223;51.006;7.610;2023-09-30T01:19:15;23.35;;;6.35;;
37339;SDS011;23223;51.006;7.610;2023-09-30T01:21:41;25.30;;;5.78;;
37339;SDS011;23223;51.006;7.610;2023-09-30T01:24:07;17.42;;;5.85;;
37339;SDS011;23223;51.006;7.610;2023-09-30T01:26:32;22.17;;;4.85;;
37339;SDS011;23223;51.006;7.610;2023-09-30T01:28:58;17.40;;;5.75;;
37339;SDS011;23223;51.006;7.610;2023-09-30T01:31:24;38.72;;;5.60;;
37339;SDS011;23223;51.006;7.610;2023-09-30T01:33:52;22.45;;;6.88;;
37339;SDS011;23223;51.006;7.610;2023-09-30T01:36:19;17.20;;;6.55;;
37339;SDS011;23223;51.006;7.610;2023-09-30T01:38:45;16.90;;;5.88;;
37339;SDS011;23223;51.006;7.610;2023-09-30T01:41:11;15.77;;;5.30;;
37339;SDS011;23223;51.006;7.610;2023-09-30T01:43:36;27.38;;;4.97;;
37339;SDS011;23223;51.006;7.610;2023-09-30T01:46:02;33.42;;;4.75;;
37339;SDS011;23223;51.006;7.610;2023-09-30T01:48:30;9.25;;;3.75;;
37339;SDS011;23223;51.006;7.610;2023-09-30T01:50:55;6.15;;;2.90;;
37339;SDS011;23223;51.006;7.610;2023-09-30T01:53:21;13.82;;;4.53;;
37339;SDS011;23223;51.006;7.610;2023-09-30T01:55:46;11.77;;;5.32;;
37339;SDS011;23223;51.006;7.610;2023-09-30T01:58:13;12.43;;;5.45;;
37339;SDS011;23223;51.006;7.610;2023-09-30T02:00:38;12.30;;;5.63;;
37339;SDS011;23223;51.006;7.610;2023-09-30T02:03:04;8.23;;;5.63;;
37339;SDS011;23223;51.006;7.610;2023-09-30T02:05:30;8.60;;;4.35;;
37339;SDS011;23223;51.006;7.610;2023-09-30T02:07:55;7.13;;;3.08;;
37339;SDS011;23223;51.006;7.610;2023-09-30T02:10:21;6.15;;;3.90;;
37339;SDS011;23223;51.006;7.610;2023-09-30T02:12:47;9.80;;;4.25;;
37339;SDS011;23223;51.006;7.610;2023-09-30T02:15:13;7.72;;;3.30;;
37339;SDS011;23223;51.006;7.610;2023-09-30T02:17:39;6.57;;;3.85;;
37339;SDS011;23223;51.006;7.610;2023-09-30T02:20:05;9.70;;;5.20;;
37339;SDS011;23223;51.006;7.610;2023-09-30T02:22:38;11.32;;;5.10;;
37339;SDS011;23223;51.006;7.610;2023-09-30T02:25:04;8.93;;;6.00;;
37339;SDS011;23223;51.006;7.610;2023-09-30T02:27:32;14.45;;;4.45;;
37339;SDS011;23223;51.006;7.610;2023-09-30T02:29:58;11.18;;;5.47;;
37339;SDS011;23223;51.006;7.610;2023-09-30T02:32:24;15.10;;;5.45;;
37339;SDS011;23223;51.006;7.610;2023-09-30T02:34:49;13.95;;;5.10;;
37339;SDS011;23223;51.006;7.610;2023-09-30T02:37:15;14.10;;;5.32;;
37339;SDS011;23223;51.006;7.610;2023-09-30T02:39:43;19.50;;;6.18;;
37339;SDS011;23223;51.006;7.610;2023-09-30T02:42:09;9.40;;;4.70;;
37339;SDS011;23223;51.006;7.610;2023-09-30T02:44:35;14.60;;;5.13;;
37339;SDS011;23223;51.006;7.610;2023-09-30T02:47:01;29.00;;;5.47;;
37339;SDS011;23223;51.006;7.610;2023-09-30T02:49:26;14.15;;;4.40;;
37339;SDS011;23223;51.006;7.610;2023-09-30T02:51:52;11.63;;;4.70;;
37339;SDS011;23223;51.006;7.610;2023-09-30T02:54:18;8.52;;;5.43;;
37339;SDS011;23223;51.006;7.610;2023-09-30T02:56:43;33.90;;;5.05;;
37339;SDS011;23223;51.006;7.610;2023-09-30T02:59:11;6.40;;;3.80;;
37339;SDS011;23223;51.006;7.610;2023-09-30T03:01:36;13.45;;;4.05;;
37339;SDS011;23223;51.006;7.610;2023-09-30T03:04:02;15.60;;;4.00;;
37339;SDS011;23223;51.006;7.610;2023-09-30T03:06:32;4.78;;;2.85;;
37339;SDS011;23223;51.006;7.610;2023-09-30T03:09:02;16.10;;;4.80;;
37339;SDS011;23223;51.006;7.610;2023-09-30T03:11:29;25.83;;;3.80;;
37339;SDS011;23223;51.006;7.610;2023-09-30T03:13:56;11.82;;;4.03;;
37339;SDS011;23223;51.006;7.610;2023-09-30T03:16:22;27.88;;;4.75;;
37339;SDS011;23223;51.006;7.610;2023-09-30T03:18:49;35.47;;;5.47;;
37339;SDS011;23223;51.006;7.610;2023-09-30T03:21:15;20.50;;;4.32;;
37339;SDS011;23223;51.006;7.610;2023-09-30T03:23:41;31.25;;;3.97;;
37339;SDS011;23223;51.006;7.610;2023-09-30T03:26:07;20.90;;;4.35;;
37339;SDS011;23223;51.006;7.610;2023-09-30T03:28:35;44.80;;;4.72;;
37339;SDS011;23223;51.006;7.610;2023-09-30T03:31:02;26.95;;;4.15;;
37339;SDS011;23223;51.006;7.610;2023-09-30T03:33:30;38.15;;;4.22;;
37339;SDS011;23223;51.006;7.610;2023-09-30T03:35:56;33.80;;;3.97;;
37339;SDS011;23223;51.006;7.610;2023-09-30T03:38:25;14.85;;;4.65;;
37339;SDS011;23223;51.006;7.610;2023-09-30T03:40:51;20.45;;;5.22;;
37339;SDS011;23223;51.006;7.610;2023-09-30T03:43:19;28.88;;;5.10;;
37339;SDS011;23223;51.006;7.610;2023-09-30T03:45:46;44.22;;;4.97;;
37339;SDS011;23223;51.006;7.610;2023-09-30T03:48:12;21.13;;;4.03;;
37339;SDS011;23223;51.006;7.610;2023-09-30T03:50:37;11.82;;;3.38;;
37339;SDS011;23223;51.006;7.610;2023-09-30T03:53:03;27.88;;;4.50;;
37339;SDS011;23223;51.006;7.610;2023-09-30T03:55:31;25.52;;;4.05;;
37339;SDS011;23223;51.006;7.610;2023-09-30T03:57:57;12.55;;;4.32;;
37339;SDS011;23223;51.006;7.610;2023-09-30T04:00:22;28.05;;;4.45;;
37339;SDS011;23223;51.006;7.610;2023-09-30T04:02:52;19.15;;;4.47;;
37339;SDS011;23223;51.006;7.610;2023-09-30T04:05:23;33.97;;;4.80;;
37339;SDS011;23223;51.006;7.610;2023-09-30T04:07:57;24.70;;;4.30;;
37339;SDS011;23223;51.006;7.610;2023-09-30T04:10:23;36.83;;;3.85;;
37339;SDS011;23223;51.006;7.610;2023-09-30T04:12:50;19.08;;;4.65;;
37339;SDS011;23223;51.006;7.610;2023-09-30T04:15:17;29.05;;;4.13;;
37339;SDS011;23223;51.006;7.610;2023-09-30T04:17:45;8.95;;;3.03;;
37339;SDS011;23223;51.006;7.610;2023-09-30T04:20:11;5.32;;;3.38;;
37339;SDS011;23223;51.006;7.610;2023-09-30T04:22:41;7.00;;;4.55;;
37339;SDS011;23223;51.006;7.610;2023-09-30T04:25:14;16.85;;;5.50;;
37339;SDS011;23223;51.006;7.610;2023-09-30T04:27:41;5.32;;;3.08;;
37339;SDS011;23223;51.006;7.610;2023-09-30T04:30:07;11.80;;;4.53;;
37339;SDS011;23223;51.006;7.610;2023-09-30T04:32:36;9.27;;;4.97;;
37339;SDS011;23223;51.006;7.610;2023-09-30T04:35:04;10.02;;;4.45;;
37339;SDS011;23223;51.006;7.610;2023-09-30T04:37:30;19.73;;;4.72;;
37339;SDS011;23223;51.006;7.610;2023-09-30T04:39:55;12.80;;;3.70;;
37339;SDS011;23223;51.006;7.610;2023-09-30T04:42:22;3.22;;;2.20;;
37339;SDS011;23223;51.006;7.610;2023-09-30T04:44:50;31.83;;;5.72;;
37339;SDS011;23223;51.006;7.610;2023-09-30T04:47:16;24.80;;;4.60;;
37339;SDS011;23223;51.006;7.610;2023-09-30T04:49:43;31.42;;;5.10;;
37339;SDS011;23223;51.006;7.610;2023-09-30T04:52:09;27.65;;;4.90;;
37339;SDS011;23223;51.006;7.610;2023-09-30T04:54:35;25.27;;;5.90;;
37339;SDS011;23223;51.006;7.610;2023-09-30T04:57:01;12.32;;;4.70;;
37339;SDS011;23223;51.006;7.610;2023-09-30T04:59:27;12.02;;;4.25;;
37339;SDS011;23223;51.006;7.610;2023-09-30T05:01:53;14.38;;;5.05;;
37339;SDS011;23223;51.006;7.610;2023-09-30T05:04:19;18.52;;;5.00;;
37339;SDS011;23223;51.006;7.610;2023-09-30T05:06:45;9.60;;;4.40;;
37339;SDS011;23223;51.006;7.610;2023-09-30T05:09:11;13.50;;;3.40;;
37339;SDS011;23223;51.006;7.610;2023-09-30T05:11:37;6.60;;;3.35;;
37339;SDS011;23223;51.006;7.610;2023-09-30T05:14:03;22.50;;;4.85;;
37339;SDS011;23223;51.006;7.610;2023-09-30T05:16:30;14.45;;;4.25;;
37339;SDS011;23223;51.006;7.610;2023-09-30T05:18:56;12.80;;;4.10;;
37339;SDS011;23223;51.006;7.610;2023-09-30T05:21:25;15.07;;;3.60;;
37339;SDS011;23223;51.006;7.610;2023-09-30T05:23:51;7.47;;;3.97;;
37339;SDS011;23223;51.006;7.610;2023-09-30T05:26:17;10.40;;;4.82;;
37339;SDS011;23223;51.006;7.610;2023-09-30T05:28:43;11.68;;;4.18;;
37339;SDS011;23223;51.006;7.610;2023-09-30T05:31:09;13.80;;;5.05;;
37339;SDS011;23223;51.006;7.610;2023-09-30T05:33:34;9.38;;;4.63;;
37339;SDS011;23223;51.006;7.610;2023-09-30T05:36:01;14.65;;;4.93;;
37339;SDS011;23223;51.006;7.610;2023-09-30T05:38:27;11.95;;;4.35;;
37339;SDS011;23223;51.006;7.610;2023-09-30T05:40:55;11.50;;;4.13;;
37339;SDS011;23223;51.006;7.610;2023-09-30T05:43:23;10.55;;;4.32;;
37339;SDS011;23223;51.006;7.610;2023-09-30T05:45:49;14.55;;;4.05;;
37339;SDS011;23223;51.006;7.610;2023-09-30T05:48:19;19.48;;;5.47;;
37339;SDS011;23223;51.006;7.610;2023-09-30T05:50:45;28.75;;;4.78;;
37339;SDS011;23223;51.006;7.610;2023-09-30T05:53:12;11.52;;;4.15;;
37339;SDS011;23223;51.006;7.610;2023-09-30T05:55:38;20.85;;;4.25;;
37339;SDS011;23223;51.006;7.610;2023-09-30T05:58:07;25.48;;;5.32;;
37339;SDS011;23223;51.006;7.610;2023-09-30T06:00:33;20.60;;;3.63;;
37339;SDS011;23223;51.006;7.610;2023-09-30T06:03:00;26.08;;;4.22;;
37339;SDS011;23223;51.006;7.610;2023-09-30T06:05:26;10.43;;;3.58;;
37339;SDS011;23223;51.006;7.610;2023-09-30T06:07:55;21.50;;;5.80;;
37339;SDS011;23223;51.006;7.610;2023-09-30T06:10:21;20.73;;;3.92;;
37339;SDS011;23223;51.006;7.610;2023-09-30T06:12:47;31.85;;;4.63;;
37339;SDS011;23223;51.006;7.610;2023-09-30T06:15:16;42.20;;;4.32;;
37339;SDS011;23223;51.006;7.610;2023-09-30T06:17:47;34.42;;;5.32;;
37339;SDS011;23223;51.006;7.610;2023-09-30T06:20:13;20.95;;;5.10;;
37339;SDS011;23223;51.006;7.610;2023-09-30T06:22:45;22.00;;;4.82;;
37339;SDS011;23223;51.006;7.610;2023-09-30T06:25:12;34.38;;;5.72;;
37339;SDS011;23223;51.006;7.610;2023-09-30T06:27:38;6.93;;;4.22;;
37339;SDS011;23223;51.006;7.610;2023-09-30T06:30:04;12.35;;;5.20;;
37339;SDS011;23223;51.006;7.610;2023-09-30T06:32:30;10.27;;;5.65;;
37339;SDS011;23223;51.006;7.610;2023-09-30T06:34:56;7.63;;;5.05;;
37339;SDS011;23223;51.006;7.610;2023-09-30T06:37:22;5.28;;;3.40;;
37339;SDS011;23223;51.006;7.610;2023-09-30T06:39:47;11.82;;;5.63;;
37339;SDS011;23223;51.006;7.610;2023-09-30T06:42:13;9.93;;;6.13;;
37339;SDS011;23223;51.006;7.610;2023-09-30T06:44:39;7.50;;;4.30;;
37339;SDS011;23223;51.006;7.610;2023-09-30T06:47:04;11.25;;;5.50;;
37339;SDS011;23223;51.006;7.610;2023-09-30T06:49:33;11.65;;;6.40;;
37339;SDS011;23223;51.006;7.610;2023-09-30T06:51:59;23.23;;;6.38;;
37339;SDS011;23223;51.006;7.610;2023-09-30T06:54:24;6.47;;;4.05;;
37339;SDS011;23223;51.006;7.610;2023-09-30T06:56:50;8.77;;;4.55;;
37339;SDS011;23223;51.006;7.610;2023-09-30T06:59:16;6.15;;;3.90;;
37339;SDS011;23223;51.006;7.610;2023-09-30T07:01:42;11.00;;;5.28;;
37339;SDS011;23223;51.006;7.610;2023-09-30T07:04:09;3.33;;;2.67;;
37339;SDS011;23223;51.006;7.610;2023-09-30T07:06:36;4.32;;;3.17;;
37339;SDS011;23223;51.006;7.610;2023-09-30T07:09:02;7.97;;;3.50;;
37339;SDS011;23223;51.006;7.610;2023-09-30T07:11:29;4.18;;;3.28;;
37339;SDS011;23223;51.006;7.610;2023-09-30T07:13:58;5.85;;;3.92;;
37339;SDS011;23223;51.006;7.610;2023-09-30T07:16:23;6.90;;;3.35;;
37339;SDS011;23223;51.006;7.610;2023-09-30T07:18:49;3.00;;;2.50;;
37339;SDS011;23223;51.006;7.610;2023-09-30T07:21:15;5.30;;;3.92;;
37339;SDS011;23223;51.006;7.610;2023-09-30T07:23:41;4.75;;;2.97;;
37339;SDS011;23223;51.006;7.610;2023-09-30T07:26:07;7.80;;;4.57;;
37339;SDS011;23223;51.006;7.610;2023-09-30T07:28:33;8.57;;;3.83;;
37339;SDS011;23223;51.006;7.610;2023-09-30T07:30:59;13.23;;;6.80;;
37339;SDS011;23223;51.006;7.610;2023-09-30T07:33:24;5.50;;;3.70;;
37339;SDS011;23223;51.006;7.610;2023-09-30T07:35:50;7.78;;;3.80;;
37339;SDS011;23223;51.006;7.610;2023-09-30T07:38:16;5.32;;;3.42;;
37339;SDS011;23223;51.006;7.610;2023-09-30T07:40:42;11.30;;;7.03;;
37339;SDS011;23223;51.006;7.610;2023-09-30T07:43:08;6.78;;;4.40;;
37339;SDS011;23223;51.006;7.610;2023-09-30T07:45:34;6.38;;;4.38;;
37339;SDS011;23223;51.006;7.610;2023-09-30T07:47:59;6.68;;;4.40;;
37339;SDS011;23223;51.006;7.610;2023-09-30T07:50:28;5.65;;;4.25;;
37339;SDS011;23223;51.006;7.610;2023-09-30T07:52:56;7.60;;;4.63;;
37339;SDS011;23223;51.006;7.610;2023-09-30T07:55:23;7.35;;;4.00;;
37339;SDS011;23223;51.006;7.610;2023-09-30T07:57:49;6.18;;;3.70;;
37339;SDS011;23223;51.006;7.610;2023-09-30T08:00:15;11.25;;;5.68;;
37339;SDS011;23223;51.006;7.610;2023-09-30T08:02:42;7.32;;;4.53;;
37339;SDS011;23223;51.006;7.610;2023-09-30T08:05:08;7.63;;;4.40;;
37339;SDS011;23223;51.006;7.610;2023-09-30T08:07:34;5.65;;;4.22;;
37339;SDS011;23223;51.006;7.610;2023-09-30T08:10:00;7.50;;;5.35;;
37339;SDS011;23223;51.006;7.610;2023-09-30T08:12:29;6.38;;;4.43;;
37339;SDS011;23223;51.006;7.610;2023-09-30T08:14:55;8.38;;;4.35;;
37339;SDS011;23223;51.006;7.610;2023-09-30T08:17:21;8.20;;;4.53;;
37339;SDS011;23223;51.006;7.610;2023-09-30T08:19:46;9.98;;;5.20;;
37339;SDS011;23223;51.006;7.610;2023-09-30T08:22:15;9.35;;;5.22;;
37339;SDS011;23223;51.006;7.610;2023-09-30T08:24:40;9.43;;;5.40;;
37339;SDS011;23223;51.006;7.610;2023-09-30T08:27:06;12.32;;;5.45;;
37339;SDS011;23223;51.006;7.610;2023-09-30T08:29:35;8.77;;;5.18;;
37339;SDS011;23223;51.006;7.610;2023-09-30T08:32:03;10.05;;;5.20;;
37339;SDS011;23223;51.006;7.610;2023-09-30T08:34:29;11.82;;;6.47;;
37339;SDS011;23223;51.006;7.610;2023-09-30T08:36:55;11.80;;;5.22;;
37339;SDS011;23223;51.006;7.610;2023-09-30T08:39:22;16.48;;;8.07;;
37339;SDS011;23223;51.006;7.610;2023-09-30T08:41:48;17.77;;;8.70;;
37339;SDS011;23223;51.006;7.610;2023-09-30T08:44:15;19.08;;;9.40;;
37339;SDS011;23223;51.006;7.610;2023-09-30T08:46:41;19.55;;;7.88;;
37339;SDS011;23223;51.006;7.610;2023-09-30T08:49:08;8.93;;;5.20;;
37339;SDS011;23223;51.006;7.610;2023-09-30T08:51:35;14.68;;;6.45;;
37339;SDS011;23223;51.006;7.610;2023-09-30T08:54:02;8.23;;;4.07;;
37339;SDS011;23223;51.006;7.610;2023-09-30T08:56:29;18.48;;;8.52;;
37339;SDS011;23223;51.006;7.610;2023-09-30T08:58:59;13.40;;;6.82;;
37339;SDS011;23223;51.006;7.610;2023-09-30T09:01:26;16.40;;;7.53;;
37339;SDS011;23223;51.006;7.610;2023-09-30T09:03:53;16.08;;;8.93;;
37339;SDS011;23223;51.006;7.610;2023-09-30T09:06:25;16.60;;;8.18;;
37339;SDS011;23223;51.006;7.610;2023-09-30T09:08:51;17.77;;;8.90;;
37339;SDS011;23223;51.006;7.610;2023-09-30T09:11:17;18.02;;;9.40;;
37339;SDS011;23223;51.006;7.610;2023-09-30T09:13:53;20.73;;;7.57;;
37339;SDS011;23223;51.006;7.610;2023-09-30T09:16:21;13.70;;;7.60;;
37339;SDS011;23223;51.006;7.610;2023-09-30T09:18:48;9.45;;;3.83;;
37339;SDS011;23223;51.006;7.610;2023-09-30T09:21:15;14.38;;;7.95;;
37339;SDS011;23223;51.006;7.610;2023-09-30T09:23:43;13.30;;;6.30;;
37339;SDS011;23223;51.006;7.610;2023-09-30T09:26:22;20.83;;;7.85;;
37339;SDS011;23223;51.006;7.610;2023-09-30T09:28:58;17.42;;;7.68;;
37339;SDS011;23223;51.006;7.610;2023-09-30T09:31:34;14.20;;;8.35;;
37339;SDS011;23223;51.006;7.610;2023-09-30T09:34:13;16.52;;;8.32;;
37339;SDS011;23223;51.006;7.610;2023-09-30T09:36:43;17.90;;;7.47;;
37339;SDS011;23223;51.006;7.610;2023-09-30T09:39:10;14.98;;;7.00;;
37339;SDS011;23223;51.006;7.610;2023-09-30T09:41:54;14.98;;;6.80;;
37339;SDS011;23223;51.006;7.610;2023-09-30T09:44:23;11.90;;;5.50;;
37339;SDS011;23223;51.006;7.610;2023-09-30T09:46:52;8.68;;;3.95;;
37339;SDS011;23223;51.006;7.610;2023-09-30T09:49:19;12.45;;;5.47;;
37339;SDS011;23223;51.006;7.610;2023-09-30T09:51:46;13.50;;;6.00;;
37339;SDS011;23223;51.006;7.610;2023-09-30T09:54:17;8.35;;;4.47;;
37339;SDS011;23223;51.006;7.610;2023-09-30T09:56:45;8.02;;;4.00;;
37339;SDS011;23223;51.006;7.610;2023-09-30T09:59:11;7.32;;;3.65;;
37339;SDS011;23223;51.006;7.610;2023-09-30T10:01:38;7.47;;;4.03;;
37339;SDS011;23223;51.006;7.610;2023-09-30T10:04:05;15.85;;;6.07;;
37339;SDS011;23223;51.006;7.610;2023-09-30T10:06:31;10.73;;;4.90;;
37339;SDS011;23223;51.006;7.610;2023-09-30T10:09:03;8.13;;;4.93;;
37339;SDS011;23223;51.006;7.610;2023-09-30T10:11:32;7.40;;;4.03;;
37339;SDS011;23223;51.006;7.610;2023-09-30T10:13:59;12.75;;;4.53;;
37339;SDS011;23223;51.006;7.610;2023-09-30T10:19:15;11.05;;;6.30;;
37339;SDS011;23223;51.006;7.610;2023-09-30T10:24:44;14.90;;;5.28;;
37339;SDS011;23223;51.006;7.610;2023-09-30T10:36:00;9.35;;;3.28;;
37339;SDS011;23223;51.006;7.610;2023-09-30T10:40:52;8.10;;;3.80;;
37339;SDS011;23223;51.006;7.610;2023-09-30T10:43:37;10.95;;;4.72;;
37339;SDS011;23223;51.006;7.610;2023-09-30T10:46:29;10.50;;;5.43;;
37339;SDS011;23223;51.006;7.610;2023-09-30T10:48:51;11.40;;;4.35;;
37339;SDS011;23223;51.006;7.610;2023-09-30T10:51:17;13.55;;;6.32;;
37339;SDS011;23223;51.006;7.610;2023-09-30T10:56:17;26.15;;;12.18;;
37339;SDS011;23223;51.006;7.610;2023-09-30T11:01:17;12.50;;;5.53;;
37339;SDS011;23223;51.006;7.610;2023-09-30T11:03:47;43.35;;;23.13;;
37339;SDS011;23223;51.006;7.610;2023-09-30T11:06:17;41.03;;;25.23;;
37339;SDS011;23223;51.006;7.610;2023-09-30T11:09:07;15.20;;;5.57;;
37339;SDS011;23223;51.006;7.610;2023-09-30T11:11:44;14.48;;;7.40;;
37339;SDS011;23223;51.006;7.610;2023-09-30T11:14:27;16.30;;;6.38;;
37339;SDS011;23223;51.006;7.610;2023-09-30T11:16:55;12.43;;;4.20;;
37339;SDS011;23223;51.006;7.610;2023-09-30T11:19:22;7.00;;;3.85;;
37339;SDS011;23223;51.006;7.610;2023-09-30T11:21:49;8.65;;;4.25;;
37339;SDS011;23223;51.006;7.610;2023-09-30T11:24:23;7.88;;;4.22;;
37339;SDS011;23223;51.006;7.610;2023-09-30T11:26:52;9.85;;;3.63;;
37339;SDS011;23223;51.006;7.610;2023-09-30T11:29:21;9.00;;;3.28;;
37339;SDS011;23223;51.006;7.610;2023-09-30T11:31:48;10.82;;;3.58;;
37339;SDS011;23223;51.006;7.610;2023-09-30T11:34:17;5.93;;;2.85;;
37339;SDS011;23223;51.006;7.610;2023-09-30T11:36:48;10.18;;;2.92;;
37339;SDS011;23223;51.006;7.610;2023-09-30T11:39:28;11.82;;;3.67;;
37339;SDS011;23223;51.006;7.610;2023-09-30T11:41:55;10.55;;;3.83;;
37339;SDS011;23223;51.006;7.610;2023-09-30T11:44:22;8.00;;;3.25;;
37339;SDS011;23223;51.006;7.610;2023-09-30T11:46:55;5.53;;;3.13;;
37339;SDS011;23223;51.006;7.610;2023-09-30T11:52:05;9.60;;;3.28;;
37339;SDS011;23223;51.006;7.610;2023-09-30T11:54:36;6.35;;;2.60;;
37339;SDS011;23223;51.006;7.610;2023-09-30T11:57:18;7.03;;;2.75;;
37339;SDS011;23223;51.006;7.610;2023-09-30T11:59:46;11.00;;;3.10;;
37339;SDS011;23223;51.006;7.610;2023-09-30T12:02:12;9.55;;;3.28;;
37339;SDS011;23223;51.006;7.610;2023-09-30T12:04:39;7.40;;;3.28;;
37339;SDS011;23223;51.006;7.610;2023-09-30T12:07:09;9.20;;;3.15;;
37339;SDS011;23223;51.006;7.610;2023-09-30T12:09:36;7.55;;;3.08;;
37339;SDS011;23223;51.006;7.610;2023-09-30T12:12:04;6.25;;;2.78;;
37339;SDS011;23223;51.006;7.610;2023-09-30T12:14:34;11.18;;;3.25;;
37339;SDS011;23223;51.006;7.610;2023-09-30T12:16:59;9.00;;;2.72;;
37339;SDS011;23223;51.006;7.610;2023-09-30T12:19:25;6.45;;;2.53;;
37339;SDS011;23223;51.006;7.610;2023-09-30T12:21:51;9.50;;;3.33;;
37339;SDS011;23223;51.006;7.610;2023-09-30T12:24:18;9.68;;;2.97;;
37339;SDS011;23223;51.006;7.610;2023-09-30T12:26:49;5.68;;;2.63;;
37339;SDS011;23223;51.006;7.610;2023-09-30T12:29:19;7.65;;;2.50;;
37339;SDS011;23223;51.006;7.610;2023-09-30T12:31:50;7.25;;;2.55;;
37339;SDS011;23223;51.006;7.610;2023-09-30T12:34:17;7.40;;;2.53;;
37339;SDS011;23223;51.006;7.610;2023-09-30T12:36:43;9.60;;;2.92;;
37339;SDS011;23223;51.006;7.610;2023-09-30T12:39:09;7.47;;;2.90;;
37339;SDS011;23223;51.006;7.610;2023-09-30T12:41:42;5.07;;;2.55;;
37339;SDS011;23223;51.006;7.610;2023-09-30T12:44:11;6.50;;;2.47;;
37339;SDS011;23223;51.006;7.610;2023-09-30T12:46:37;7.53;;;2.80;;
37339;SDS011;23223;51.006;7.610;2023-09-30T12:49:04;8.30;;;2.88;;
37339;SDS011;23223;51.006;7.610;2023-09-30T12:51:33;7.00;;;2.83;;
37339;SDS011;23223;51.006;7.610;2023-09-30T12:54:00;3.92;;;2.47;;
37339;SDS011;23223;51.006;7.610;2023-09-30T12:56:26;7.15;;;3.22;;
37339;SDS011;23223;51.006;7.610;2023-09-30T12:58:54;4.10;;;2.35;;
37339;SDS011;23223;51.006;7.610;2023-09-30T13:01:20;6.18;;;2.38;;
37339;SDS011;23223;51.006;7.610;2023-09-30T13:03:47;10.75;;;2.58;;
37339;SDS011;23223;51.006;7.610;2023-09-30T13:06:14;8.55;;;2.63;;
37339;SDS011;23223;51.006;7.610;2023-09-30T13:08:41;6.30;;;2.47;;
37339;SDS011;23223;51.006;7.610;2023-09-30T13:11:07;6.75;;;2.92;;
37339;SDS011;23223;51.006;7.610;2023-09-30T13:13:32;7.78;;;2.58;;
37339;SDS011;23223;51.006;7.610;2023-09-30T13:16:02;5.55;;;2.60;;
37339;SDS011;23223;51.006;7.610;2023-09-30T13:18:32;9.80;;;2.60;;
37339;SDS011;23223;51.006;7.610;2023-09-30T13:20:58;3.67;;;2.38;;
37339;SDS011;23223;51.006;7.610;2023-09-30T13:23:24;8.93;;;2.63;;
37339;SDS011;23223;51.006;7.610;2023-09-30T13:25:51;6.07;;;2.13;;
37339;SDS011;23223;51.006;7.610;2023-09-30T13:28:17;6.18;;;2.45;;
37339;SDS011;23223;51.006;7.610;2023-09-30T13:30:43;6.22;;;2.67;;
37339;SDS011;23223;51.006;7.610;2023-09-30T13:33:11;7.00;;;3.08;;
37339;SDS011;23223;51.006;7.610;2023-09-30T13:35:37;4.45;;;2.65;;
37339;SDS011;23223;51.006;7.610;2023-09-30T13:38:03;4.10;;;2.38;;
37339;SDS011;23223;51.006;7.610;2023-09-30T13:40:29;8.80;;;2.70;;
37339;SDS011;23223;51.006;7.610;2023-09-30T13:42:55;7.82;;;3.00;;
37339;SDS011;23223;51.006;7.610;2023-09-30T13:45:22;9.23;;;3.35;;
37339;SDS011;23223;51.006;7.610;2023-09-30T13:47:48;7.70;;;2.80;;
37339;SDS011;23223;51.006;7.610;2023-09-30T13:50:14;6.32;;;2.50;;
37339;SDS011;23223;51.006;7.610;2023-09-30T13:52:39;9.00;;;2.92;;
37339;SDS011;23223;51.006;7.610;2023-09-30T13:55:05;7.72;;;2.50;;
37339;SDS011;23223;51.006;7.610;2023-09-30T13:57:34;6.45;;;2.95;;
37339;SDS011;23223;51.006;7.610;2023-09-30T14:00:03;6.57;;;2.75;;
37339;SDS011;23223;51.006;7.610;2023-09-30T14:02:31;8.30;;;2.92;;
37339;SDS011;23223;51.006;7.610;2023-09-30T14:04:58;5.70;;;2.88;;
37339;SDS011;23223;51.006;7.610;2023-09-30T14:07:24;5.80;;;2.58;;
37339;SDS011;23223;51.006;7.610;2023-09-30T14:09:49;3.90;;;2.15;;
37339;SDS011;23223;51.006;7.610;2023-09-30T14:12:17;5.95;;;3.08;;
37339;SDS011;23223;51.006;7.610;2023-09-30T14:14:43;8.48;;;2.90;;
37339;SDS011;23223;51.006;7.610;2023-09-30T14:17:08;5.45;;;2.45;;
37339;SDS011;23223;51.006;7.610;2023-09-30T14:19:35;5.75;;;2.78;;
37339;SDS011;23223;51.006;7.610;2023-09-30T14:22:02;7.40;;;3.08;;
37339;SDS011;23223;51.006;7.610;2023-09-30T14:24:30;6.13;;;2.72;;
37339;SDS011;23223;51.006;7.610;2023-09-30T14:26:56;8.80;;;3.10;;
37339;SDS011;23223;51.006;7.610;2023-09-30T14:29:27;6.50;;;2.97;;
37339;SDS011;23223;51.006;7.610;2023-09-30T14:31:53;6.53;;;2.85;;
37339;SDS011;23223;51.006;7.610;2023-09-30T14:34:18;5.22;;;2.78;;
37339;SDS011;23223;51.006;7.610;2023-09-30T14:36:44;3.08;;;2.30;;
37339;SDS011;23223;51.006;7.610;2023-09-30T14:39:10;8.00;;;3.00;;
37339;SDS011;23223;51.006;7.610;2023-09-30T14:41:36;5.55;;;3.03;;
37339;SDS011;23223;51.006;7.610;2023-09-30T14:44:01;9.27;;;2.95;;
37339;SDS011;23223;51.006;7.610;2023-09-30T14:46:32;6.13;;;2.83;;
37339;SDS011;23223;51.006;7.610;2023-09-30T14:49:02;8.68;;;2.75;;
37339;SDS011;23223;51.006;7.610;2023-09-30T14:51:27;8.07;;;2.75;;
37339;SDS011;23223;51.006;7.610;2023-09-30T14:53:53;9.07;;;3.58;;
37339;SDS011;23223;51.006;7.610;2023-09-30T14:56:19;6.38;;;2.55;;
37339;SDS011;23223;51.006;7.610;2023-09-30T14:58:45;6.78;;;3.22;;
37339;SDS011;23223;51.006;7.610;2023-09-30T15:01:11;5.78;;;2.75;;
37339;SDS011;23223;51.006;7.610;2023-09-30T15:03:38;6.57;;;2.38;;
37339;SDS011;23223;51.006;7.610;2023-09-30T15:06:07;5.85;;;2.55;;